createdAt,value
2022-12-12T00:00:46.689Z,96932.97
2022-12-12T00:03:14.311Z,96931.00
2022-12-12T00:05:41.949Z,96933.78
2022-12-12T00:08:09.499Z,96928.25
2022-12-12T00:10:37.267Z,96931.50
2022-12-12T00:13:04.737Z,96938.81
2022-12-12T00:15:32.302Z,96940.28
2022-12-12T00:18:01.226Z,96938.97
2022-12-12T00:20:28.712Z,96931.50
2022-12-12T00:22:56.238Z,96935.59
2022-12-12T00:25:23.664Z,96927.78
2022-12-12T00:27:51.295Z,96928.59
2022-12-12T00:30:18.693Z,96930.25
2022-12-12T00:32:46.200Z,96927.13
2022-12-12T00:35:13.861Z,96931.84
2022-12-12T00:37:41.526Z,96929.25
2022-12-12T00:40:10.618Z,96928.94
2022-12-12T00:42:38.156Z,96929.13
2022-12-12T00:45:06.048Z,96925.84
2022-12-12T00:47:33.520Z,96929.44
2022-12-12T00:50:01.055Z,96932.97
2022-12-12T00:52:28.553Z,96930.88
2022-12-12T00:54:56.028Z,96941.75
2022-12-12T00:57:23.498Z,96944.38
2022-12-12T00:59:50.944Z,96939.66
2022-12-12T01:02:23.523Z,96941.09
2022-12-12T01:04:54.007Z,96941.91
2022-12-12T01:07:21.507Z,96947.78
2022-12-12T01:09:48.957Z,96948.91
2022-12-12T01:12:16.466Z,96947.78
2022-12-12T01:14:44.028Z,96946.81
2022-12-12T01:17:11.423Z,96942.25
2022-12-12T01:19:38.986Z,96946.66
2022-12-12T01:22:06.449Z,96950.75
2022-12-12T01:24:33.998Z,96946.47
2022-12-12T01:27:01.714Z,96940.34
2022-12-12T01:29:29.244Z,96925.97
2022-12-12T01:31:56.666Z,96932.66
2022-12-12T01:34:24.133Z,96931.03
2022-12-12T01:36:51.678Z,96925.53
2022-12-12T01:39:19.217Z,96944.72
2022-12-12T01:41:46.616Z,96955.28
2022-12-12T01:44:41.527Z,96941.94
2022-12-12T01:47:09.609Z,96939.84
2022-12-12T01:49:37.114Z,96949.44
2022-12-12T01:52:10.818Z,96951.72
2022-12-12T01:54:47.017Z,96950.25
2022-12-12T01:57:21.498Z,96948.66
2022-12-12T01:59:49.188Z,96951.28
2022-12-12T02:02:16.734Z,96943.63
2022-12-12T02:04:44.337Z,96935.66
2022-12-12T02:07:12.697Z,96946.38
2022-12-12T02:09:40.764Z,96938.06
2022-12-12T02:12:08.397Z,96949.00
2022-12-12T02:14:40.577Z,96946.53
2022-12-12T02:17:36.385Z,96950.25
2022-12-12T02:20:19.138Z,96945.72
2022-12-12T02:23:11.362Z,96938.22
2022-12-12T02:26:16.173Z,96940.38
2022-12-12T02:29:08.262Z,96942.66
2022-12-12T02:32:00.504Z,96939.38
2022-12-12T02:34:46.605Z,96938.91
2022-12-12T02:37:29.328Z,96949.13
2022-12-12T02:40:26.271Z,96952.53
2022-12-12T02:43:11.067Z,96948.19
2022-12-12T02:45:47.858Z,96944.47
2022-12-12T02:48:20.339Z,96940.69
2022-12-12T02:50:50.819Z,96939.44
2022-12-12T02:53:20.117Z,96944.47
2022-12-12T02:55:48.183Z,96955.84
2022-12-12T02:58:16.886Z,96949.31
2022-12-12T03:01:11.337Z,96954.81
2022-12-12T03:04:22.019Z,96959.72
2022-12-12T03:07:37.267Z,96950.78
2022-12-12T03:10:15.376Z,96955.19
2022-12-12T03:13:06.127Z,96948.81
2022-12-12T03:15:56.924Z,96951.78
2022-12-12T03:18:59.199Z,96940.88
2022-12-12T03:21:49.638Z,96944.81
2022-12-12T03:24:22.624Z,96943.34
2022-12-12T03:27:01.504Z,96949.06
2022-12-12T03:29:36.509Z,96935.88
2022-12-12T03:32:10.027Z,96939.28
2022-12-12T03:34:43.626Z,96936.38
2022-12-12T03:37:16.541Z,96941.56
2022-12-12T03:39:55.295Z,96940.25
2022-12-12T03:42:36.668Z,96931.00
2022-12-12T03:45:13.621Z,96932.59
2022-12-12T03:48:12.048Z,96928.56
2022-12-12T03:50:52.946Z,96936.69
2022-12-12T03:53:47.167Z,96933.41
2022-12-12T03:56:31.996Z,96939.59
2022-12-12T03:59:09.476Z,96938.47
2022-12-12T04:01:46.383Z,96924.00
2022-12-12T04:04:29.440Z,96940.44
2022-12-12T04:07:16.017Z,96945.31
2022-12-12T04:10:02.224Z,96936.50
2022-12-12T04:12:59.929Z,96941.91
2022-12-12T04:15:36.487Z,96935.06
2022-12-12T04:18:25.867Z,96942.41
2022-12-12T04:21:35.007Z,96935.25
2022-12-12T04:24:23.687Z,96938.34
2022-12-12T04:26:54.017Z,96938.16
2022-12-12T04:29:39.848Z,96933.13
2022-12-12T04:32:16.882Z,96943.53
2022-12-12T04:34:49.161Z,96942.06
2022-12-12T04:37:39.686Z,96941.56
2022-12-12T04:40:11.073Z,96941.56
2022-12-12T04:42:46.736Z,96944.81
2022-12-12T04:45:19.087Z,96948.09
2022-12-12T04:47:50.559Z,96951.66
2022-12-12T04:50:20.637Z,96953.16
2022-12-12T04:52:50.818Z,96952.00
2022-12-12T04:55:24.641Z,96954.41
2022-12-12T04:57:54.916Z,96954.59
2022-12-12T05:00:24.413Z,96954.28
2022-12-12T05:03:13.413Z,96960.16
2022-12-12T05:06:00.920Z,96963.75
2022-12-12T05:08:36.368Z,96962.09
2022-12-12T05:11:05.968Z,96960.16
2022-12-12T05:13:37.023Z,96957.72
2022-12-12T05:16:15.043Z,96967.50
2022-12-12T05:18:42.597Z,96959.66
2022-12-12T05:21:10.005Z,96972.34
2022-12-12T05:27:50.017Z,96976.44
2022-12-12T05:30:17.611Z,96980.66
2022-12-12T05:32:45.277Z,96972.53
2022-12-12T05:35:13.245Z,96967.31
2022-12-12T05:37:41.231Z,96978.41
2022-12-12T05:40:11.330Z,96974.00
2022-12-12T05:42:40.429Z,96973.34
2022-12-12T05:45:09.293Z,96978.72
2022-12-12T05:47:37.014Z,96971.72
2022-12-12T05:50:05.683Z,96975.47
2022-12-12T05:52:33.478Z,96976.13
2022-12-12T05:55:01.111Z,96984.25
2022-12-12T05:57:28.506Z,96976.13
2022-12-12T05:59:56.194Z,96977.44
2022-12-12T06:02:23.675Z,96980.34
2022-12-12T06:04:51.165Z,96982.28
2022-12-12T06:07:18.643Z,96986.53
2022-12-12T06:09:46.183Z,96988.16
2022-12-12T06:12:13.731Z,96984.06
2022-12-12T06:14:41.263Z,96985.91
2022-12-12T06:17:08.688Z,96985.72
2022-12-12T06:19:36.202Z,96978.88
2022-12-12T06:22:03.762Z,96988.47
2022-12-12T06:24:31.332Z,96988.47
2022-12-12T06:26:58.730Z,96981.97
2022-12-12T06:29:26.663Z,96995.16
2022-12-12T06:31:54.374Z,96999.38
2022-12-12T06:34:21.802Z,96992.06
2022-12-12T06:36:49.279Z,96997.09
2022-12-12T06:39:16.739Z,96995.00
2022-12-12T06:41:44.449Z,96994.03
2022-12-12T06:44:12.018Z,97005.56
2022-12-12T06:46:39.927Z,97007.69
2022-12-12T06:49:09.970Z,97011.44
2022-12-12T06:51:44.414Z,97013.75
2022-12-12T06:54:17.777Z,97006.75
2022-12-12T06:56:48.537Z,97017.97
2022-12-12T06:59:17.083Z,97013.88
2022-12-12T07:01:45.584Z,97020.72
2022-12-12T07:04:13.814Z,97019.72
2022-12-12T07:06:41.843Z,97023.31
2022-12-12T07:09:09.474Z,97023.31
2022-12-12T07:11:36.943Z,97035.69
2022-12-12T07:14:05.828Z,97032.28
2022-12-12T07:16:34.067Z,97030.44
2022-12-12T07:19:01.604Z,97035.81
2022-12-12T07:21:29.336Z,97045.06
2022-12-12T07:23:57.502Z,97037.91
2022-12-12T07:26:25.233Z,97038.13
2022-12-12T07:28:53.039Z,97045.75
2022-12-12T07:31:23.087Z,97042.16
2022-12-12T07:33:50.682Z,97043.53
2022-12-12T07:36:18.244Z,97046.66
2022-12-12T07:38:46.184Z,97045.31
2022-12-12T07:41:16.264Z,97049.03
2022-12-12T07:43:46.705Z,97056.03
2022-12-12T07:46:17.677Z,97052.00
2022-12-12T07:48:45.269Z,97054.16
2022-12-12T07:51:13.286Z,97052.72
2022-12-12T07:53:41.804Z,97054.00
2022-12-12T07:56:11.231Z,97053.53
2022-12-12T07:58:39.248Z,97047.53
2022-12-12T08:01:15.474Z,97063.31
2022-12-12T08:03:45.055Z,97059.44
2022-12-12T08:06:13.934Z,97056.97
2022-12-12T08:08:42.083Z,97052.56
2022-12-12T08:11:12.051Z,97051.75
2022-12-12T08:13:40.625Z,97054.53
2022-12-12T08:16:13.890Z,97058.47
2022-12-12T08:18:41.497Z,97056.84
2022-12-12T08:21:10.955Z,97066.94
2022-12-12T08:23:39.576Z,97066.59
2022-12-12T08:26:13.303Z,97071.53
2022-12-12T08:28:44.105Z,97073.66
2022-12-12T08:31:18.421Z,97063.81
2022-12-12T08:33:47.396Z,97072.66
2022-12-12T08:36:22.800Z,97071.03
2022-12-12T08:38:51.256Z,97074.59
2022-12-12T08:41:19.911Z,97068.09
2022-12-12T08:43:47.926Z,97072.38
2022-12-12T08:46:18.396Z,97072.34
2022-12-12T08:48:47.455Z,97073.19
2022-12-12T08:51:18.628Z,97071.22
2022-12-12T08:53:50.755Z,97081.03
2022-12-12T08:56:19.679Z,97086.56
2022-12-12T08:58:48.209Z,97093.38
2022-12-12T09:01:19.575Z,97101.38
2022-12-12T09:03:48.147Z,97112.00
2022-12-12T09:06:16.094Z,97112.00
2022-12-12T09:08:46.156Z,97109.56
2022-12-12T09:11:14.614Z,97122.13
2022-12-12T09:13:42.559Z,97125.38
2022-12-12T09:16:11.850Z,97120.81
2022-12-12T09:18:46.338Z,97127.34
2022-12-12T09:21:16.612Z,97130.44
2022-12-12T09:23:44.163Z,97123.91
2022-12-12T09:26:12.007Z,97122.59
2022-12-12T09:28:40.397Z,97123.75
2022-12-12T09:31:09.895Z,97128.47
2022-12-12T09:33:37.459Z,97123.41
2022-12-12T09:36:07.860Z,97134.16
2022-12-12T09:38:36.619Z,97125.22
2022-12-12T09:41:30.811Z,97121.78
2022-12-12T09:44:00.837Z,97131.72
2022-12-12T09:46:31.838Z,97113.56
2022-12-12T09:49:19.740Z,97124.00
2022-12-12T09:51:49.809Z,97125.00
2022-12-12T09:54:21.378Z,97117.31
2022-12-12T09:57:16.240Z,97117.75
2022-12-12T09:59:46.357Z,97120.03
2022-12-12T10:02:44.493Z,97120.50
2022-12-12T10:06:01.902Z,97126.22
2022-12-12T10:09:03.784Z,97119.00
2022-12-12T10:11:50.349Z,97124.13
2022-12-12T10:14:37.664Z,97124.50
2022-12-12T10:17:12.435Z,97127.47
2022-12-12T10:19:55.989Z,97128.63
2022-12-12T10:22:36.323Z,97126.44
2022-12-12T10:25:19.147Z,97122.69
2022-12-12T10:27:46.776Z,97128.88
2022-12-12T10:30:17.818Z,97126.53
2022-12-12T10:33:14.605Z,97128.22
2022-12-12T10:35:53.749Z,97128.00
2022-12-12T10:39:03.866Z,97131.69
2022-12-12T10:41:51.426Z,97120.38
2022-12-12T10:44:46.879Z,97123.31
2022-12-12T10:47:15.060Z,97124.47
2022-12-12T10:49:42.776Z,97117.91
2022-12-12T10:52:22.348Z,97124.34
2022-12-12T10:54:58.387Z,97127.16
2022-12-12T10:57:28.236Z,97135.34
2022-12-12T10:59:59.100Z,97130.19
2022-12-12T11:02:42.542Z,97130.88
2022-12-12T11:05:18.406Z,97130.88
2022-12-12T11:07:49.568Z,97130.03
2022-12-12T11:10:34.007Z,97125.16
2022-12-12T11:13:11.213Z,97131.44
2022-12-12T11:16:02.906Z,97131.09
2022-12-12T11:18:30.515Z,97134.53
2022-12-12T11:21:07.285Z,97136.97
2022-12-12T11:23:39.359Z,97134.72
2022-12-12T11:26:14.796Z,97134.25
2022-12-12T11:28:44.674Z,97132.91
2022-12-12T11:31:19.545Z,97145.03
2022-12-12T11:33:51.025Z,97144.38
2022-12-12T11:36:23.426Z,97148.66
2022-12-12T11:38:54.897Z,97148.78
2022-12-12T11:41:23.043Z,97147.69
2022-12-12T11:43:50.478Z,97150.59
2022-12-12T11:46:23.605Z,97152.09
2022-12-12T11:48:53.800Z,97151.78
2022-12-12T11:51:40.651Z,97146.09
2022-12-12T11:54:19.281Z,97147.69
2022-12-12T11:57:02.972Z,97152.28
2022-12-12T12:00:04.891Z,97145.41
2022-12-12T12:02:47.652Z,97151.94
2022-12-12T12:05:21.001Z,97145.56
2022-12-12T12:08:13.030Z,97147.97
2022-12-12T12:11:04.489Z,97140.09
2022-12-12T12:13:52.666Z,97146.63
2022-12-12T12:16:20.105Z,97143.47
2022-12-12T12:19:13.310Z,97150.50
2022-12-12T12:21:46.541Z,97147.91
2022-12-12T12:24:48.134Z,97149.38
2022-12-12T12:27:25.914Z,97150.16
2022-12-12T12:29:57.244Z,97142.59
2022-12-12T12:32:44.122Z,97144.88
2022-12-12T12:35:24.013Z,97151.34
2022-12-12T12:38:35.491Z,97153.47
2022-12-12T12:41:26.460Z,97157.72
2022-12-12T12:44:15.112Z,97157.88
2022-12-12T12:46:50.111Z,97154.47
2022-12-12T12:49:29.230Z,97154.88
2022-12-12T12:52:06.469Z,97155.56
2022-12-12T12:54:39.571Z,97157.28
2022-12-12T12:57:16.475Z,97153.25
2022-12-12T12:59:49.024Z,97164.78
2022-12-12T13:02:40.879Z,97156.06
2022-12-12T13:05:37.984Z,97164.50
2022-12-12T13:08:13.847Z,97158.13
2022-12-12T13:10:48.125Z,97156.25
2022-12-12T13:13:24.845Z,97158.88
2022-12-12T13:16:20.350Z,97161.84
2022-12-12T13:18:56.505Z,97167.59
2022-12-12T13:21:48.944Z,97170.34
2022-12-12T13:24:59.652Z,97171.22
2022-12-12T13:27:46.054Z,97165.84
2022-12-12T13:30:37.001Z,97183.50
2022-12-12T13:33:19.886Z,97176.94
2022-12-12T13:35:51.253Z,97174.19
2022-12-12T13:38:23.868Z,97181.63
2022-12-12T13:40:58.306Z,97181.28
2022-12-12T13:43:37.922Z,97183.09
2022-12-12T13:46:24.839Z,97185.38
2022-12-12T13:49:07.688Z,97196.34
2022-12-12T13:51:41.545Z,97191.28
2022-12-12T13:54:13.242Z,97197.47
2022-12-12T13:56:47.280Z,97198.31
2022-12-12T13:59:25.208Z,97205.97
2022-12-12T14:01:57.201Z,97203.19
2022-12-12T14:04:34.993Z,97198.63
2022-12-12T14:07:04.496Z,97203.88
2022-12-12T14:09:47.652Z,97206.94
2022-12-12T14:12:31.551Z,97210.38
2022-12-12T14:15:08.347Z,97207.63
2022-12-12T14:17:42.873Z,97213.81
2022-12-12T14:20:26.408Z,97218.03
2022-12-12T14:22:59.829Z,97219.84
2022-12-12T14:25:36.363Z,97221.78
2022-12-12T14:28:34.545Z,97227.50
2022-12-12T14:31:15.355Z,97225.06
2022-12-12T14:34:07.025Z,97228.31
2022-12-12T14:37:16.144Z,97226.53
2022-12-12T14:39:49.616Z,97231.75
2022-12-12T14:43:20.074Z,97228.78
2022-12-12T14:45:40.639Z,97239.06
2022-12-12T14:48:21.662Z,97231.88
2022-12-12T14:51:14.651Z,97231.53
2022-12-12T14:53:47.406Z,97237.19
2022-12-12T14:56:18.840Z,97239.31
2022-12-12T14:58:56.564Z,97244.22
2022-12-12T15:01:32.250Z,97239.63
2022-12-12T15:04:03.705Z,97245.00
2022-12-12T15:06:31.301Z,97252.44
2022-12-12T15:09:08.241Z,97251.16
2022-12-12T15:11:36.125Z,97246.09
2022-12-12T15:14:04.592Z,97250.66
2022-12-12T15:16:59.604Z,97252.63
2022-12-12T15:19:32.022Z,97261.69
2022-12-12T15:22:00.505Z,97263.66
2022-12-12T15:24:35.995Z,97272.94
2022-12-12T15:27:05.536Z,97284.00
2022-12-12T15:29:35.620Z,97281.06
2022-12-12T15:32:07.280Z,97278.63
2022-12-12T15:34:36.847Z,97281.91
2022-12-12T15:37:43.325Z,97290.69
2022-12-12T15:40:14.899Z,97285.47
2022-12-12T15:42:46.555Z,97291.94
2022-12-12T15:45:27.673Z,97281.94
2022-12-12T15:47:57.047Z,97281.88
2022-12-12T15:50:44.667Z,97278.81
2022-12-12T15:53:32.730Z,97286.56
2022-12-12T15:56:16.045Z,97282.16
2022-12-12T15:58:47.116Z,97287.22
2022-12-12T16:01:21.012Z,97286.88
2022-12-12T16:04:09.777Z,97288.69
2022-12-12T16:06:38.172Z,97292.16
2022-12-12T16:09:11.619Z,97296.03
2022-12-12T16:11:47.975Z,97299.09
2022-12-12T16:14:35.543Z,97299.63
2022-12-12T16:17:15.866Z,97299.66
2022-12-12T16:19:54.923Z,97299.53
2022-12-12T16:22:42.677Z,97301.97
2022-12-12T16:25:19.963Z,97308.66
2022-12-12T16:27:51.231Z,97305.72
2022-12-12T16:30:18.810Z,97316.94
2022-12-12T16:32:46.375Z,97317.28
2022-12-12T16:35:20.645Z,97317.97
2022-12-12T16:37:48.633Z,97322.16
2022-12-12T16:40:21.315Z,97326.97
2022-12-12T16:42:59.803Z,97331.22
2022-12-12T16:45:27.282Z,97329.88
2022-12-12T16:47:55.382Z,97333.81
2022-12-12T16:50:22.950Z,97336.66
2022-12-12T16:52:50.352Z,97342.81
2022-12-12T16:55:22.355Z,97349.38
2022-12-12T16:57:50.798Z,97340.22
2022-12-12T17:00:18.744Z,97336.06
2022-12-12T17:02:46.195Z,97339.19
2022-12-12T17:05:20.725Z,97336.16
2022-12-12T17:07:48.293Z,97342.47
2022-12-12T17:10:16.063Z,97340.91
2022-12-12T17:12:44.309Z,97347.22
2022-12-12T17:15:21.141Z,97345.59
2022-12-12T17:17:48.755Z,97356.13
2022-12-12T17:20:16.852Z,97361.34
2022-12-12T17:22:45.232Z,97353.69
2022-12-12T17:25:14.194Z,97355.63
2022-12-12T17:27:42.560Z,97350.56
2022-12-12T17:30:11.884Z,97353.19
2022-12-12T17:32:39.893Z,97350.28
2022-12-12T17:35:08.961Z,97358.38
2022-12-12T17:37:36.985Z,97358.38
2022-12-12T17:40:06.455Z,97364.03
2022-12-12T17:42:34.035Z,97365.13
2022-12-12T17:45:01.457Z,97364.19
2022-12-12T17:47:28.987Z,97365.97
2022-12-12T17:49:56.548Z,97366.50
2022-12-12T17:52:24.102Z,97365.50
2022-12-12T17:55:53.571Z,97375.69
2022-12-12T17:57:39.134Z,97380.38
2022-12-12T18:00:07.383Z,97380.09
2022-12-12T18:02:40.663Z,97381.88
2022-12-12T18:05:09.924Z,97387.91
2022-12-12T18:07:37.562Z,97380.09
2022-12-12T18:10:05.443Z,97385.81
2022-12-12T18:12:32.954Z,97388.41
2022-12-12T18:15:00.545Z,97384.47
2022-12-12T18:17:27.911Z,97370.63
2022-12-12T18:19:55.476Z,97366.09
2022-12-12T18:22:22.880Z,97368.31
2022-12-12T18:24:50.503Z,97379.56
2022-12-12T18:27:17.953Z,97377.28
2022-12-12T18:29:45.553Z,97380.88
2022-12-12T18:32:13.081Z,97381.56
2022-12-12T18:34:40.597Z,97389.94
2022-12-12T18:37:08.253Z,97392.28
2022-12-12T18:39:35.944Z,97397.19
2022-12-12T18:42:03.633Z,97400.88
2022-12-12T18:44:31.070Z,97397.47
2022-12-12T18:46:58.461Z,97399.78
2022-12-12T18:49:26.314Z,97404.00
2022-12-12T18:51:53.844Z,97395.22
2022-12-12T18:54:21.353Z,97395.91
2022-12-12T18:56:48.896Z,97397.53
2022-12-12T18:59:17.522Z,97397.53
2022-12-12T19:01:45.459Z,97398.94
2022-12-12T19:04:17.725Z,97402.59
2022-12-12T19:06:46.986Z,97402.59
2022-12-12T19:09:17.339Z,97402.59
2022-12-12T19:11:45.864Z,97404.41
2022-12-12T19:14:15.113Z,97404.69
2022-12-12T19:16:43.792Z,97404.63
2022-12-12T19:19:12.441Z,97400.41
2022-12-12T19:21:41.439Z,97402.03
2022-12-12T19:24:12.412Z,97406.41
2022-12-12T19:26:43.771Z,97404.63
2022-12-12T19:29:17.866Z,97398.16
2022-12-12T19:31:45.589Z,97406.13
2022-12-12T19:34:16.082Z,97409.38
2022-12-12T19:36:47.053Z,97403.66
2022-12-12T19:39:14.541Z,97404.47
2022-12-12T19:41:42.404Z,97409.38
2022-12-12T19:44:13.001Z,97408.13
2022-12-12T19:46:42.728Z,97406.19
2022-12-12T19:49:13.460Z,97407.16
2022-12-12T19:51:42.905Z,97399.88
2022-12-12T19:54:14.059Z,97401.16
2022-12-12T19:56:42.145Z,97400.97
2022-12-12T19:59:13.459Z,97404.16
2022-12-12T20:01:41.737Z,97409.25
2022-12-12T20:04:22.046Z,97407.16
2022-12-12T20:06:50.922Z,97405.66
2022-12-12T20:09:20.813Z,97403.66
2022-12-12T20:11:48.862Z,97403.94
2022-12-12T20:14:19.173Z,97400.09
2022-12-12T20:16:47.101Z,97405.81
2022-12-12T20:19:15.690Z,97402.25
2022-12-12T20:22:02.183Z,97400.63
2022-12-12T20:24:32.948Z,97396.53
2022-12-12T20:27:03.311Z,97400.22
2022-12-12T20:29:31.526Z,97404.09
2022-12-12T20:32:00.121Z,97397.97
2022-12-12T20:34:28.636Z,97392.63
2022-12-12T20:36:56.084Z,97400.13
2022-12-12T20:39:26.123Z,97399.41
2022-12-12T20:41:54.380Z,97408.34
2022-12-12T20:44:24.164Z,97411.91
2022-12-12T20:46:51.811Z,97408.63
2022-12-12T20:49:22.407Z,97410.53
2022-12-12T20:51:58.344Z,97411.22
2022-12-12T20:54:28.989Z,97408.50
2022-12-12T20:56:58.580Z,97421.63
2022-12-12T20:59:27.270Z,97417.69
2022-12-12T21:01:55.022Z,97418.13
2022-12-12T21:04:24.209Z,97415.50
2022-12-12T21:06:52.251Z,97419.50
2022-12-12T21:09:25.595Z,97404.97
2022-12-12T21:11:56.394Z,97409.34
2022-12-12T21:14:25.662Z,97406.59
2022-12-12T21:16:53.517Z,97405.91
2022-12-12T21:19:22.143Z,97409.63
2022-12-12T21:21:50.610Z,97413.34
2022-12-12T21:24:18.340Z,97410.88
2022-12-12T21:26:46.412Z,97415.97
2022-12-12T21:29:14.235Z,97419.38
2022-12-12T21:31:48.601Z,97421.97
2022-12-12T21:34:18.165Z,97428.28
2022-12-12T21:36:45.885Z,97435.28
2022-12-12T21:39:13.542Z,97431.88
2022-12-12T21:41:44.042Z,97436.78
2022-12-12T21:44:11.764Z,97432.09
2022-12-12T21:46:42.058Z,97433.88
2022-12-12T21:49:19.984Z,97436.78
2022-12-12T21:51:48.154Z,97442.63
2022-12-12T21:54:16.270Z,97442.50
2022-12-12T21:56:44.477Z,97433.88
2022-12-12T21:59:13.241Z,97434.69
2022-12-12T22:01:41.848Z,97430.31
2022-12-12T22:04:11.656Z,97424.66
2022-12-12T22:06:39.566Z,97427.81
2022-12-12T22:09:10.151Z,97432.47
2022-12-12T22:11:41.741Z,97432.34
2022-12-12T22:14:21.794Z,97435.06
2022-12-12T22:16:49.997Z,97431.66
2022-12-12T22:19:17.816Z,97428.41
2022-12-12T22:21:47.496Z,97425.25
2022-12-12T22:24:18.494Z,97419.63
2022-12-12T22:26:48.925Z,97423.25
2022-12-12T22:29:19.725Z,97417.13
2022-12-12T22:31:50.371Z,97416.19
2022-12-12T22:34:21.647Z,97419.31
2022-12-12T22:36:50.028Z,97425.63
2022-12-12T22:39:20.467Z,97417.97
2022-12-12T22:41:48.121Z,97415.50
2022-12-12T22:44:17.499Z,97419.09
2022-12-12T22:46:46.626Z,97420.13
2022-12-12T22:49:16.452Z,97420.94
2022-12-12T22:51:44.523Z,97431.91
2022-12-12T22:54:12.098Z,97421.81
2022-12-12T22:56:40.280Z,97422.06
2022-12-12T22:59:08.806Z,97415.38
2022-12-12T23:01:36.277Z,97420.31
2022-12-12T23:04:03.883Z,97414.94
2022-12-12T23:06:36.446Z,97413.00
2022-12-12T23:09:07.753Z,97414.94
2022-12-12T23:11:35.828Z,97416.72
2022-12-12T23:14:09.063Z,97418.63
2022-12-12T23:16:37.103Z,97415.09
2022-12-12T23:19:06.119Z,97418.94
2022-12-12T23:21:35.496Z,97406.44
2022-12-12T23:24:03.888Z,97408.91
2022-12-12T23:26:33.546Z,97406.91
2022-12-12T23:29:01.606Z,97413.88
2022-12-12T23:31:31.792Z,97411.00
2022-12-12T23:34:05.949Z,97411.41
2022-12-12T23:36:33.618Z,97410.03
2022-12-12T23:39:04.827Z,97411.13
2022-12-12T23:41:33.164Z,97416.03
2022-12-12T23:44:00.612Z,97413.72
2022-12-12T23:46:28.563Z,97420.19
2022-12-12T23:48:57.799Z,97418.28
2022-12-12T23:51:27.725Z,97415.81
2022-12-12T23:53:58.908Z,97407.19
2022-12-12T23:56:26.956Z,97407.75
2022-12-12T23:58:58.127Z,97413.66
